Kodiak Airport Kodiak US
ICAO: PADQ
IATA:
Category: Medium
Scheduled Services:

Elevation: 78 ft
TransAlt. 18000 ft.

Airport Communications:
ANCHORAGE CNTR:125.1
ATIS:135.5
CTAF:119.8
KENAI RDO:119.8
GND:121.9
TWEB:117.1
OPS:156.8
KENAI RDO:122.2
TWR:119.8
UNICOM:122.8

PADQ Zoom In..

Runways:

(A) RW 07 length 7550 ft width 150 ft
---- / hdg 74

(B) RW 11 length 5400 ft width 150 ft
---- / hdg 109

(C) RW 18 length 5010 ft width 150 ft
---- / hdg 184

(D) RW 25 length 7550 ft width 150 ft
ILS 110.90 / hdg 254

(E) RW 29 length 5400 ft width 150 ft
---- / hdg 289

(F) RW 36 length 5010 ft width 150 ft
---- / hdg 4

Location; PADQ
Day. 24 / Time. 13.53 Zulu
* Altimeter: 29.59
* Temperature: 07° c. 44.6°f.
* Wind from: 070° Speed 07 kn.
Dewpoint: 06° c.
Visibility: 10 Statute Miles.
Clouds: Scattered 900 ft.
Clouds: Scattered 1300 ft.
Clouds: Overcast 3300 ft.
Conditions: Light Rain.

PADQ 241353Z AUTO 07007KT 10SM -RA SCT009 SCT013 OVC033 07/06 A2959 RMK AO2 RAB1255E11B34 SLP021 P0001 T00670056 TSNO $


Wind From 070°
Speed 07 kn.

 
 
jpsmedia.com for Web Design SOUNDCLOUD worldairports.se 2018   terms of use